Rugby, Tennessee
Current Conditions -  °F | °C
As of 7:56 PM on Saturday 22 Nov 2014 (Local Time) from KEKQ Reporting Station
Clear Clear  
Wind Chill: 54°   Ceiling: Unl
Heat Index: 54°   Visibility: 10mi
Dew Point: 36°   Wind: 9mph
Humidity: 51%   Direction: 170°S
Pressure: 30.18"   Gusts: NA
Location:  36.36°N, 84.7°W
Report Text: KEKQ 230056Z AUTO 17008KT 10SM CLR 12/02 A3018 RMK AO2 T01220022 SLP223
Loading
Personal Weather Stations






























Interactive Weather Map New forecast layout! Learn more

10-Day Weather Forecast

Advertisements
Track Severe Weather on mobile